createdAt,value
2022-07-29T00:02:30.116Z,55.00
2022-07-29T00:12:35.432Z,55.80
2022-07-29T00:22:40.061Z,64.40
2022-07-29T00:32:45.161Z,80.90
2022-07-29T00:42:52.207Z,89.30
2022-07-29T00:52:57.539Z,84.10
2022-07-29T01:03:01.384Z,78.70
2022-07-29T01:13:08.631Z,76.90
2022-07-29T01:23:58.125Z,78.00
2022-07-29T01:34:07.996Z,80.30
2022-07-29T01:44:20.191Z,79.60
2022-07-29T01:54:34.486Z,77.50
2022-07-29T02:04:39.573Z,76.70
2022-07-29T02:14:48.443Z,78.90
2022-07-29T02:24:53.694Z,79.50
2022-07-29T02:35:00.750Z,80.50
2022-07-29T02:45:05.628Z,84.50
2022-07-29T02:55:17.566Z,84.10
2022-07-29T03:05:23.147Z,83.70
2022-07-29T03:15:29.169Z,84.20
2022-07-29T03:25:33.526Z,85.30
2022-07-29T03:35:38.720Z,84.70
2022-07-29T03:45:45.046Z,85.60
2022-07-29T03:55:56.340Z,88.50
2022-07-29T04:06:02.034Z,90.40
2022-07-29T04:16:07.454Z,90.80
2022-07-29T04:26:11.927Z,90.30
2022-07-29T04:36:26.873Z,90.40
2022-07-29T04:46:32.982Z,91.10
2022-07-29T04:56:38.173Z,90.60
2022-07-29T05:06:41.864Z,90.50
2022-07-29T05:16:46.924Z,90.70
2022-07-29T05:26:50.652Z,90.20
2022-07-29T05:36:55.777Z,88.10
2022-07-29T05:46:59.449Z,87.70
2022-07-29T05:57:05.591Z,88.60
2022-07-29T06:07:09.740Z,88.20
2022-07-29T06:17:15.379Z,86.40
2022-07-29T06:27:19.274Z,84.50
2022-07-29T06:37:24.441Z,83.30
2022-07-29T06:47:30.056Z,83.10
2022-07-29T06:57:35.268Z,82.30
2022-07-29T07:07:39.046Z,76.50
2022-07-29T07:17:44.187Z,76.20
2022-07-29T07:27:48.102Z,76.20
2022-07-29T07:37:53.192Z,76.90
2022-07-29T07:47:57.164Z,75.10
2022-07-29T07:58:02.310Z,71.60
2022-07-29T08:08:11.192Z,68.10
2022-07-29T08:18:16.327Z,66.70
2022-07-29T08:28:20.237Z,66.30
2022-07-29T08:38:27.019Z,64.60
2022-07-29T08:48:31.438Z,62.00
2022-07-29T08:58:38.346Z,61.80
2022-07-29T09:08:42.872Z,60.20
2022-07-29T09:18:49.195Z,60.70
2022-07-29T09:28:52.912Z,61.80
2022-07-29T09:39:02.491Z,59.90
2022-07-29T09:49:10.067Z,60.50
2022-07-29T09:59:15.233Z,60.50
2022-07-29T10:09:18.987Z,58.30
2022-07-29T10:19:27.498Z,60.10
2022-07-29T10:29:32.713Z,59.40
2022-07-29T10:39:53.902Z,57.90
2022-07-29T10:50:01.353Z,58.30
2022-07-29T11:00:33.969Z,56.80
2022-07-29T11:10:37.766Z,57.70
2022-07-29T11:20:45.807Z,57.90
2022-07-29T11:30:54.487Z,56.10
2022-07-29T11:41:26.038Z,56.80
2022-07-29T11:51:32.877Z,56.00
2022-07-29T12:01:38.338Z,55.30
2022-07-29T12:11:42.196Z,54.50
2022-07-29T12:21:59.395Z,54.70
2022-07-29T12:32:05.317Z,53.60
2022-07-29T12:42:20.246Z,53.80
2022-07-29T12:52:29.681Z,52.90
2022-07-29T13:02:35.365Z,52.60
2022-07-29T13:12:42.315Z,52.60
2022-07-29T13:22:50.450Z,51.90
2022-07-29T13:32:56.036Z,50.60
2022-07-29T13:43:01.212Z,50.80
2022-07-29T13:53:05.041Z,51.40
2022-07-29T14:03:10.859Z,49.50
2022-07-29T14:13:24.943Z,49.10
2022-07-29T14:23:31.067Z,48.50
2022-07-29T14:33:34.735Z,48.80
2022-07-29T14:43:39.877Z,49.10
2022-07-29T14:53:44.064Z,50.80
2022-07-29T15:03:49.426Z,60.30
2022-07-29T15:13:53.077Z,87.30
2022-07-29T15:23:58.577Z,92.40
2022-07-29T15:34:05.927Z,96.80
2022-07-29T15:44:11.685Z,97.00
2022-07-29T15:54:17.510Z,94.70
2022-07-29T16:04:22.779Z,95.70
2022-07-29T16:14:28.453Z,91.60
2022-07-29T16:24:34.360Z,92.70
2022-07-29T16:34:38.022Z,92.10
2022-07-29T16:44:43.082Z,92.00
2022-07-29T16:54:47.165Z,93.00
2022-07-29T17:04:52.390Z,91.20
2022-07-29T17:14:56.098Z,89.30
2022-07-29T17:25:01.353Z,74.60
2022-07-29T17:35:25.874Z,74.20
2022-07-29T17:45:48.846Z,83.40
2022-07-29T17:55:53.066Z,87.60
2022-07-29T18:05:58.363Z,89.60
2022-07-29T18:16:04.586Z,90.50
2022-07-29T18:26:10.764Z,91.00
2022-07-29T18:36:14.534Z,91.10
2022-07-29T18:46:19.630Z,92.90
2022-07-29T18:56:24.161Z,94.90
2022-07-29T19:06:29.387Z,96.20
2022-07-29T19:16:33.365Z,97.00
2022-07-29T19:26:43.860Z,99.30
2022-07-29T19:36:47.569Z,99.10
2022-07-29T19:46:53.766Z,99.50
2022-07-29T19:56:57.647Z,98.80
2022-07-29T20:07:03.142Z,99.20
2022-07-29T20:17:07.152Z,99.10
2022-07-29T20:27:13.658Z,98.80
2022-07-29T20:37:20.469Z,99.50
2022-07-29T20:47:25.811Z,99.40
2022-07-29T20:57:39.265Z,99.90
2022-07-29T21:07:44.956Z,99.90
2022-07-29T21:17:49.357Z,99.90
2022-07-29T21:28:13.823Z,99.80
2022-07-29T21:38:18.389Z,99.90
2022-07-29T21:48:26.598Z,99.90
2022-07-29T21:58:30.791Z,99.90
2022-07-29T22:08:36.102Z,99.90
2022-07-29T22:18:40.198Z,99.90
2022-07-29T22:28:45.635Z,99.90
2022-07-29T22:38:51.952Z,99.90
2022-07-29T22:48:58.337Z,99.90
2022-07-29T22:59:13.686Z,99.90
2022-07-29T23:09:18.984Z,99.90
2022-07-29T23:19:22.818Z,99.90
2022-07-29T23:29:34.959Z,99.90
2022-07-29T23:39:40.476Z,99.90
2022-07-29T23:49:46.236Z,99.90
2022-07-29T23:59:50.108Z,99.90
